DSTT2: Red River at Denison Dam nr Denison, TX

Data processed at Fri Mar 09 2018 23:11


All information presented herein is the property of the government of the United States of America and may be revised or deleted at any time without prior notice.
Dissemination of this information without the expressed written consent of the Public Affairs Office, Tulsa District U.S. Army Corps of Engineers is strictly prohibited.
These data are gathered electronically and, as presented, have not undergone any form of quality control. These data are not guaranteed to be valid or correct.
Go to home page.
Go to station list.

Upstream stations:

Downstream station:
Previous Day
Next Day
Current Day
    
SHEF ID:       DSTT2     Red River at Denison Dam nr Deni
STATION TYPE:  

               PRECIP     STAGE  RIV-FLOW  BAT-LOAD
                   in        ft       cfs      volt
              Ccp-Rev   Ccp-Rev   Ccp-Rev   Ccp-Rev
(US/Central)
03/07 00:00      0.00      8.17      5759     12.89
03/07 01:00      0.00      8.17      5759     12.89
03/07 02:00      0.00      8.17      5759     12.89
03/07 03:00      0.00      8.16      5736     12.81
03/07 04:00      0.00      8.17      5759     12.81
03/07 05:00      0.00      8.18      5783     12.81
03/07 06:00      0.00      8.18      5783     12.73
03/07 07:00      0.00      8.17      5759     12.73
03/07 08:00      0.00      8.18      5783     12.73
03/07 09:00      0.00      8.18      5783     13.29
03/07 10:00      0.00      8.17      5759     13.92
03/07 11:00      0.00      9.28      8570     13.84
03/07 12:00      0.00      9.92     10400     13.84
03/07 13:00      0.00     10.08     10879     13.84
03/07 14:00      0.00     10.25     11379     13.84
03/07 15:00      0.00     10.25     11379     13.76
03/07 16:00      0.00     10.26     11408     13.68
03/07 17:00      0.00     10.26     11408     13.68
03/07 18:00      0.00     10.27     11437     13.44
03/07 19:00      0.00     10.28     11467     13.37
03/07 20:00      0.00     10.29     11496     13.05
03/07 21:00      0.00     10.31     11555     12.97
03/07 22:00      0.00     10.30     11526     12.97
03/07 23:00      0.00     10.29     11496     12.89